createdAt,value
2019-01-13T00:04:41.442Z,8.16
2019-01-13T00:07:09.649Z,8.17
2019-01-13T00:09:37.843Z,8.18
2019-01-13T00:12:06.096Z,8.21
2019-01-13T00:14:34.289Z,8.20
2019-01-13T00:17:42.604Z,8.21
2019-01-13T00:20:50.931Z,8.24
2019-01-13T00:23:19.125Z,8.26
2019-01-13T00:26:06.734Z,8.26
2019-01-13T00:28:34.958Z,8.23
2019-01-13T00:31:03.138Z,8.21
2019-01-13T00:33:31.363Z,8.21
2019-01-13T00:35:59.556Z,8.25
2019-01-13T00:38:27.751Z,8.26
2019-01-13T00:40:55.949Z,8.27
2019-01-13T00:43:24.135Z,8.26
2019-01-13T00:45:52.333Z,8.26
2019-01-13T00:48:20.521Z,8.25
2019-01-13T00:50:48.743Z,8.26
2019-01-13T00:53:16.932Z,8.28
2019-01-13T00:55:45.150Z,8.27
2019-01-13T00:58:13.334Z,8.27
2019-01-13T01:00:41.618Z,8.24
2019-01-13T01:03:09.798Z,8.23
2019-01-13T01:05:37.989Z,8.22
2019-01-13T01:08:06.174Z,8.23
2019-01-13T01:10:34.366Z,8.22
2019-01-13T01:13:02.576Z,8.22
2019-01-13T01:15:30.765Z,8.21
2019-01-13T01:17:58.949Z,8.19
2019-01-13T01:20:27.141Z,8.19
2019-01-13T01:22:55.327Z,8.18
2019-01-13T01:25:23.545Z,8.21
2019-01-13T01:27:51.727Z,8.21
2019-01-13T01:31:00.051Z,8.21
2019-01-13T01:33:28.241Z,8.22
2019-01-13T01:36:36.548Z,8.20
2019-01-13T01:39:44.844Z,8.18
2019-01-13T01:42:13.041Z,8.21
2019-01-13T01:44:41.227Z,8.24
2019-01-13T01:47:09.426Z,8.25
2019-01-13T01:49:37.614Z,8.24
2019-01-13T01:52:05.814Z,8.28
2019-01-13T01:57:21.241Z,8.29
2019-01-13T01:59:49.438Z,8.30
2019-01-13T02:02:37.063Z,8.30
2019-01-13T02:08:06.050Z,8.31
2019-01-13T02:10:34.253Z,8.31
2019-01-13T02:13:02.439Z,8.30
2019-01-13T02:15:30.627Z,8.30
2019-01-13T02:17:58.843Z,8.29
2019-01-13T02:20:27.026Z,8.27
2019-01-13T02:22:55.245Z,8.26
2019-01-13T02:28:24.823Z,8.28
2019-01-13T02:30:53.032Z,8.29
2019-01-13T02:34:01.335Z,8.30
2019-01-13T02:36:29.551Z,8.31
2019-01-13T02:38:57.795Z,8.30
2019-01-13T02:41:25.944Z,8.28
2019-01-13T02:44:13.580Z,8.29
2019-01-13T02:46:41.793Z,8.31
2019-01-13T02:49:10.001Z,8.30
2019-01-13T02:51:38.197Z,8.34
2019-01-13T02:54:06.379Z,8.34
2019-01-13T02:56:34.594Z,8.35
2019-01-13T02:59:02.779Z,8.35
2019-01-13T03:01:30.978Z,8.34
2019-01-13T03:03:59.185Z,8.33
2019-01-13T03:06:27.403Z,8.35
2019-01-13T03:08:55.606Z,8.34
2019-01-13T03:11:23.806Z,8.35
2019-01-13T03:13:51.988Z,8.36
2019-01-13T03:16:20.174Z,8.35
2019-01-13T03:18:48.366Z,8.35
2019-01-13T03:21:16.553Z,8.34
2019-01-13T03:23:44.757Z,8.31
2019-01-13T03:26:12.943Z,8.30
2019-01-13T03:28:41.155Z,8.29
2019-01-13T03:31:11.743Z,8.28
2019-01-13T03:33:39.277Z,8.26
2019-01-13T03:36:07.460Z,8.26
2019-01-13T03:38:35.660Z,8.27
2019-01-13T03:41:03.861Z,8.24
2019-01-13T03:43:32.044Z,8.25
2019-01-13T03:46:00.231Z,8.26
2019-01-13T03:48:28.452Z,8.26
2019-01-13T03:50:56.865Z,8.27
2019-01-13T03:53:26.542Z,8.27
2019-01-13T03:55:54.729Z,8.28
2019-01-13T03:58:22.946Z,8.30
2019-01-13T04:01:18.350Z,8.31
2019-01-13T04:03:40.529Z,8.31
2019-01-13T04:06:08.703Z,8.32
2019-01-13T04:08:36.928Z,8.32
2019-01-13T04:11:05.120Z,8.32
2019-01-13T04:13:33.427Z,8.32
2019-01-13T04:19:09.577Z,8.33
2019-01-13T04:21:37.787Z,8.33
2019-01-13T04:24:05.984Z,8.36
2019-01-13T04:26:34.163Z,8.41
2019-01-13T04:29:02.363Z,8.44
2019-01-13T04:31:30.552Z,8.40
2019-01-13T04:33:58.746Z,8.41
2019-01-13T04:36:26.926Z,8.40
2019-01-13T04:38:55.141Z,8.40
2019-01-13T04:41:23.315Z,8.44
2019-01-13T04:43:51.518Z,8.44
2019-01-13T04:46:19.705Z,8.41
2019-01-13T04:48:47.892Z,8.43
2019-01-13T04:51:16.079Z,8.43
2019-01-13T04:53:44.298Z,8.41
2019-01-13T04:56:12.493Z,8.41
2019-01-13T04:58:40.691Z,8.40
2019-01-13T05:01:08.914Z,8.37
2019-01-13T05:03:37.097Z,8.41
2019-01-13T05:06:05.294Z,8.45
2019-01-13T05:08:33.479Z,8.42
2019-01-13T05:11:21.102Z,8.40
2019-01-13T05:13:49.293Z,8.35
2019-01-13T05:16:17.496Z,8.35
2019-01-13T05:18:45.692Z,8.33
2019-01-13T05:21:13.887Z,8.30
2019-01-13T05:23:42.090Z,8.32
2019-01-13T05:26:10.287Z,8.33
2019-01-13T05:28:38.498Z,8.36
2019-01-13T05:31:06.685Z,8.37
2019-01-13T05:33:34.868Z,8.39
2019-01-13T05:36:03.067Z,8.41
2019-01-13T05:38:31.251Z,8.42
2019-01-13T05:40:59.450Z,8.43
2019-01-13T05:43:27.636Z,8.41
2019-01-13T05:45:55.827Z,8.42
2019-01-13T05:48:24.037Z,8.41
2019-01-13T05:50:52.244Z,8.42
2019-01-13T05:53:20.494Z,8.45
2019-01-13T05:55:48.689Z,8.45
2019-01-13T05:58:16.868Z,8.46
2019-01-13T06:00:45.057Z,8.50
2019-01-13T06:03:13.273Z,8.51
2019-01-13T06:05:41.455Z,8.51
2019-01-13T06:08:09.695Z,8.57
2019-01-13T06:10:37.836Z,8.59
2019-01-13T06:13:06.071Z,8.63
2019-01-13T06:15:34.233Z,8.64
2019-01-13T06:18:02.427Z,8.68
2019-01-13T06:20:30.617Z,8.69
2019-01-13T06:22:58.805Z,8.69
2019-01-13T06:25:27.023Z,8.73
2019-01-13T06:27:55.231Z,8.73
2019-01-13T06:30:23.419Z,8.71
2019-01-13T06:32:51.615Z,8.69
2019-01-13T06:35:19.794Z,8.68
2019-01-13T06:37:48.005Z,8.66
2019-01-13T06:43:30.151Z,8.62
2019-01-13T06:45:58.329Z,8.59
2019-01-13T06:48:26.547Z,8.58
2019-01-13T06:50:54.727Z,8.60
2019-01-13T06:53:22.923Z,8.61
2019-01-13T06:55:51.107Z,8.63
2019-01-13T06:58:19.318Z,8.63
2019-01-13T07:00:47.527Z,8.66
2019-01-13T07:03:15.734Z,8.69
2019-01-13T07:06:24.028Z,8.70
2019-01-13T07:08:52.217Z,8.72
2019-01-13T07:11:20.397Z,8.76
2019-01-13T07:13:48.588Z,8.74
2019-01-13T07:16:16.771Z,8.73
2019-01-13T07:18:44.960Z,8.77
2019-01-13T07:21:13.164Z,8.80
2019-01-13T07:23:41.359Z,8.85
2019-01-13T07:26:09.543Z,8.85
2019-01-13T07:28:37.732Z,8.84
2019-01-13T07:31:05.913Z,8.84
2019-01-13T07:33:34.117Z,8.84
2019-01-13T07:36:02.289Z,8.84
2019-01-13T07:38:30.503Z,8.81
2019-01-13T07:40:58.702Z,8.80
2019-01-13T07:43:26.880Z,8.79
2019-01-13T07:45:55.085Z,8.75
2019-01-13T07:48:23.271Z,8.74
2019-01-13T07:50:51.473Z,8.73
2019-01-13T07:53:19.670Z,8.74
2019-01-13T07:55:47.864Z,8.75
2019-01-13T07:58:16.112Z,8.77
2019-01-13T08:00:44.308Z,8.75
2019-01-13T08:03:12.487Z,8.77
2019-01-13T08:05:40.709Z,8.78
2019-01-13T08:08:08.883Z,8.78
2019-01-13T08:10:37.079Z,8.75
2019-01-13T08:13:05.257Z,8.75
2019-01-13T08:15:33.473Z,8.78
2019-01-13T08:18:01.654Z,8.77
2019-01-13T08:20:29.847Z,8.77
2019-01-13T08:22:58.021Z,8.76
2019-01-13T08:25:26.211Z,8.78
2019-01-13T08:27:54.391Z,8.77
2019-01-13T08:30:22.586Z,8.76
2019-01-13T08:32:50.785Z,8.76
2019-01-13T08:35:18.968Z,8.77
2019-01-13T08:38:27.272Z,8.79
2019-01-13T08:40:55.469Z,8.80
2019-01-13T08:43:23.648Z,8.82
2019-01-13T08:45:51.842Z,8.79
2019-01-13T08:48:20.042Z,8.80
2019-01-13T08:50:48.228Z,8.83
2019-01-13T08:53:16.413Z,8.85
2019-01-13T08:55:44.626Z,8.88
2019-01-13T08:58:12.801Z,8.88
2019-01-13T09:00:41.004Z,8.89
2019-01-13T09:03:09.195Z,8.92
2019-01-13T09:05:37.400Z,8.94
2019-01-13T09:08:05.585Z,8.98
2019-01-13T09:10:33.775Z,9.01
2019-01-13T09:13:01.966Z,9.02
2019-01-13T09:15:30.164Z,9.04
2019-01-13T09:17:58.362Z,9.05
2019-01-13T09:21:06.682Z,9.08
2019-01-13T09:23:34.885Z,9.10
2019-01-13T09:26:03.083Z,9.11
2019-01-13T09:28:31.260Z,9.13
2019-01-13T09:30:59.438Z,9.17
2019-01-13T09:33:27.651Z,9.22
2019-01-13T09:35:55.827Z,9.27
2019-01-13T09:38:24.032Z,9.31
2019-01-13T09:40:52.211Z,9.35
2019-01-13T09:43:20.409Z,9.36
2019-01-13T09:45:48.611Z,9.37
2019-01-13T09:48:16.826Z,9.39
2019-01-13T09:50:45.000Z,9.42
2019-01-13T09:53:13.199Z,9.47
2019-01-13T09:55:41.374Z,9.50
2019-01-13T09:58:49.703Z,9.56
2019-01-13T10:01:17.883Z,9.59
2019-01-13T10:03:46.093Z,9.61
2019-01-13T10:06:14.274Z,9.63
2019-01-13T10:08:42.468Z,9.65
2019-01-13T10:11:10.672Z,9.65
2019-01-13T10:13:38.861Z,9.66
2019-01-13T10:16:07.044Z,9.69
2019-01-13T10:18:35.238Z,9.72
2019-01-13T10:21:03.424Z,9.74
2019-01-13T10:23:31.632Z,9.76
2019-01-13T10:26:19.297Z,9.76
2019-01-13T10:28:47.489Z,9.75
2019-01-13T10:31:15.668Z,9.73
2019-01-13T10:33:43.899Z,9.75
2019-01-13T10:36:12.081Z,9.75
2019-01-13T10:38:40.278Z,9.78
2019-01-13T10:41:08.453Z,9.81
2019-01-13T10:43:36.664Z,9.85
2019-01-13T10:46:04.837Z,9.89
2019-01-13T10:48:33.028Z,9.90
2019-01-13T10:51:01.203Z,9.92
2019-01-13T10:53:29.395Z,9.95
2019-01-13T10:55:57.597Z,9.98
2019-01-13T10:58:25.800Z,10.00
2019-01-13T11:00:53.978Z,10.03
2019-01-13T11:03:22.165Z,10.04
2019-01-13T11:05:50.363Z,10.06
2019-01-13T11:08:18.570Z,10.06
2019-01-13T11:10:46.795Z,10.09
2019-01-13T11:13:14.967Z,10.06
2019-01-13T11:15:43.181Z,10.06
2019-01-13T11:18:11.392Z,10.09
2019-01-13T11:20:39.584Z,10.12
2019-01-13T11:23:07.763Z,10.11
2019-01-13T11:25:55.386Z,10.12
2019-01-13T11:28:23.597Z,10.14
2019-01-13T11:30:51.790Z,10.16
2019-01-13T11:33:19.982Z,10.15
2019-01-13T11:35:48.204Z,10.12
2019-01-13T11:38:35.506Z,10.18
2019-01-13T11:41:03.701Z,10.19
2019-01-13T11:43:31.907Z,10.19
2019-01-13T11:46:00.106Z,10.19
2019-01-13T11:48:28.289Z,10.19
2019-01-13T11:51:15.857Z,10.18
2019-01-13T11:53:44.038Z,10.18
2019-01-13T11:56:52.365Z,10.18
2019-01-13T11:59:27.414Z,10.14
2019-01-13T12:01:55.595Z,10.11
2019-01-13T12:04:23.781Z,10.11
2019-01-13T12:09:32.399Z,10.10
2019-01-13T12:12:00.634Z,10.13
2019-01-13T12:14:28.818Z,10.15
2019-01-13T12:16:57.014Z,10.14
2019-01-13T12:19:25.221Z,10.16
2019-01-13T12:21:53.420Z,10.17
2019-01-13T12:24:21.618Z,10.18
2019-01-13T12:26:49.834Z,10.20
2019-01-13T12:32:05.288Z,10.18
2019-01-13T12:34:33.465Z,10.17
2019-01-13T12:37:01.687Z,10.18
2019-01-13T12:39:49.007Z,10.22
2019-01-13T12:42:17.475Z,10.23
2019-01-13T12:44:45.653Z,10.21
2019-01-13T12:47:33.213Z,10.19
2019-01-13T12:50:01.404Z,10.18
2019-01-13T12:53:09.741Z,10.18
2019-01-13T12:55:37.966Z,10.17
2019-01-13T12:58:06.174Z,10.17
2019-01-13T13:00:34.394Z,10.14
2019-01-13T13:03:02.603Z,10.12
2019-01-13T13:05:30.814Z,10.12
2019-01-13T13:07:59.007Z,10.11
2019-01-13T13:11:07.317Z,10.12
2019-01-13T13:13:35.494Z,10.14
2019-01-13T13:16:03.756Z,10.14
2019-01-13T13:18:32.029Z,10.15
2019-01-13T13:21:00.341Z,10.20
2019-01-13T13:23:28.562Z,10.26
2019-01-13T13:25:56.862Z,10.30
2019-01-13T13:28:25.081Z,10.33
2019-01-13T13:30:53.290Z,10.37
2019-01-13T13:33:21.490Z,10.42
2019-01-13T13:35:49.731Z,10.44
2019-01-13T13:38:17.930Z,10.44
2019-01-13T13:40:46.110Z,10.47
2019-01-13T13:43:14.327Z,10.70
2019-01-13T13:45:42.519Z,11.04
2019-01-13T13:48:10.744Z,11.28
2019-01-13T13:50:39.437Z,11.39
2019-01-13T13:53:08.015Z,11.38
2019-01-13T13:58:23.420Z,11.02
2019-01-13T14:01:11.034Z,10.85
2019-01-13T14:03:58.665Z,10.69
2019-01-13T14:06:26.862Z,10.59
2019-01-13T14:08:55.079Z,10.48
2019-01-13T14:11:23.281Z,10.42
2019-01-13T14:13:51.478Z,10.37
2019-01-13T14:16:19.667Z,10.31
2019-01-13T14:19:28.033Z,10.28
2019-01-13T14:21:56.223Z,10.26
2019-01-13T14:24:24.445Z,10.20
2019-01-13T14:26:52.653Z,10.17
2019-01-13T14:29:20.858Z,10.13
2019-01-13T14:31:49.093Z,10.10
2019-01-13T14:34:17.311Z,10.06
2019-01-13T14:36:45.497Z,10.05
2019-01-13T14:39:13.720Z,10.03
2019-01-13T14:41:41.925Z,10.00
2019-01-13T14:44:29.552Z,9.97
2019-01-13T14:46:57.684Z,9.95
2019-01-13T14:49:25.929Z,9.92
2019-01-13T14:52:13.245Z,9.89
2019-01-13T14:54:41.480Z,9.85
2019-01-13T14:57:09.616Z,9.85
2019-01-13T14:59:37.836Z,9.79
2019-01-13T15:02:06.045Z,9.76
2019-01-13T15:04:34.230Z,9.75
2019-01-13T15:07:02.426Z,9.74
2019-01-13T15:09:30.640Z,9.73
2019-01-13T15:11:58.821Z,9.70
2019-01-13T15:14:27.020Z,9.65
2019-01-13T15:16:55.232Z,9.62
2019-01-13T15:19:23.424Z,9.59
2019-01-13T15:21:51.614Z,9.54
2019-01-13T15:24:19.815Z,9.51
2019-01-13T15:26:48.010Z,9.48
2019-01-13T15:29:16.191Z,9.48
2019-01-13T15:32:03.518Z,9.45
2019-01-13T15:34:31.703Z,9.44
2019-01-13T15:36:59.907Z,9.42
2019-01-13T15:39:28.093Z,9.44
2019-01-13T15:41:56.285Z,9.43
2019-01-13T15:44:24.467Z,9.43
2019-01-13T15:46:52.706Z,9.40
2019-01-13T15:49:20.877Z,9.38
2019-01-13T15:51:49.070Z,9.36
2019-01-13T15:54:17.248Z,9.34
2019-01-13T15:56:45.445Z,9.30
2019-01-13T15:59:13.645Z,9.27
2019-01-13T16:01:41.888Z,9.24
2019-01-13T16:04:29.433Z,9.19
2019-01-13T16:06:57.690Z,9.17
2019-01-13T16:09:25.869Z,9.15
2019-01-13T16:11:54.073Z,9.13
2019-01-13T16:14:22.268Z,9.11
2019-01-13T16:16:50.450Z,9.09
2019-01-13T16:19:18.661Z,9.08
2019-01-13T16:21:46.846Z,9.06
2019-01-13T16:24:15.060Z,9.02
2019-01-13T16:26:43.253Z,8.99
2019-01-13T16:29:11.465Z,8.96
2019-01-13T16:31:39.674Z,8.96
2019-01-13T16:34:07.890Z,8.95
2019-01-13T16:36:55.441Z,8.95
2019-01-13T16:39:23.635Z,8.93
2019-01-13T16:41:51.817Z,8.93
2019-01-13T16:46:54.053Z,8.88
2019-01-13T16:49:22.241Z,8.88
2019-01-13T16:51:50.424Z,8.89
2019-01-13T16:54:37.985Z,8.87
2019-01-13T16:57:06.191Z,8.83
2019-01-13T16:59:53.774Z,8.83
2019-01-13T17:02:21.952Z,8.85
2019-01-13T17:07:24.434Z,8.90
2019-01-13T17:09:52.624Z,8.93
2019-01-13T17:12:20.806Z,8.92
2019-01-13T17:14:49.019Z,8.95
2019-01-13T17:17:17.200Z,8.98
2019-01-13T17:19:45.391Z,9.01
2019-01-13T17:22:13.580Z,9.04
2019-01-13T17:24:41.778Z,9.02
2019-01-13T17:27:09.975Z,9.03
2019-01-13T17:29:38.169Z,9.03
2019-01-13T17:32:06.352Z,9.03
2019-01-13T17:34:36.098Z,9.06
2019-01-13T17:37:04.454Z,9.04
2019-01-13T17:39:32.667Z,9.06
2019-01-13T17:42:00.855Z,9.07
2019-01-13T17:44:29.035Z,9.07
2019-01-13T17:46:57.228Z,9.09
2019-01-13T17:49:25.427Z,9.10
2019-01-13T17:51:53.643Z,9.10
2019-01-13T17:54:21.831Z,9.11
2019-01-13T17:56:50.023Z,9.12
2019-01-13T17:59:18.206Z,9.14
2019-01-13T18:02:26.659Z,9.17
2019-01-13T18:04:55.091Z,9.19
2019-01-13T18:08:03.666Z,9.22
2019-01-13T18:10:31.977Z,9.23
2019-01-13T18:13:00.354Z,9.21
2019-01-13T18:15:28.631Z,9.20
2019-01-13T18:17:56.872Z,9.16
2019-01-13T18:20:25.116Z,9.14
2019-01-13T18:22:53.614Z,9.14
2019-01-13T18:25:22.003Z,9.15
2019-01-13T18:27:50.825Z,9.15
2019-01-13T18:33:34.044Z,9.11
2019-01-13T18:36:03.937Z,9.07
2019-01-13T18:38:32.225Z,9.04
2019-01-13T18:41:00.923Z,8.99
2019-01-13T18:43:29.716Z,8.97
2019-01-13T18:45:58.068Z,8.95
2019-01-13T18:48:26.768Z,8.93
2019-01-13T18:53:42.458Z,8.91
2019-01-13T18:56:30.061Z,8.89
2019-01-13T18:58:58.298Z,8.91
2019-01-13T19:01:26.541Z,8.89
2019-01-13T19:03:54.843Z,8.89
2019-01-13T19:06:23.239Z,8.88
2019-01-13T19:08:51.801Z,8.91
2019-01-13T19:11:20.097Z,8.92
2019-01-13T19:14:28.461Z,8.89
2019-01-13T19:19:57.453Z,8.88
2019-01-13T19:22:25.723Z,8.88
2019-01-13T19:28:07.670Z,8.92
2019-01-13T19:30:35.860Z,8.90
2019-01-13T19:33:44.171Z,8.89
2019-01-13T19:36:12.355Z,8.84
2019-01-13T19:38:59.935Z,8.82
2019-01-13T19:41:28.132Z,8.82
2019-01-13T19:43:56.330Z,8.80
2019-01-13T19:46:43.648Z,8.81
2019-01-13T19:51:45.226Z,8.80
2019-01-13T19:54:13.451Z,8.80
2019-01-13T19:56:41.658Z,8.81
2019-01-13T19:59:09.861Z,8.86
2019-01-13T20:01:57.174Z,8.84
2019-01-13T20:09:39.298Z,8.83
2019-01-13T20:12:07.477Z,8.82
2019-01-13T20:14:35.680Z,8.80
2019-01-13T20:17:03.870Z,8.77
2019-01-13T20:19:32.066Z,8.73
2019-01-13T20:22:19.613Z,8.69
2019-01-13T20:24:47.805Z,8.65
2019-01-13T20:27:15.979Z,8.61
2019-01-13T20:29:44.201Z,8.61
2019-01-13T20:32:12.387Z,8.58
2019-01-13T20:37:33.632Z,8.54
2019-01-13T20:40:01.899Z,8.51
2019-01-13T20:42:30.083Z,8.48
2019-01-13T20:44:58.281Z,8.45
2019-01-13T20:47:26.462Z,8.42
2019-01-13T20:50:15.078Z,8.37
2019-01-13T20:55:43.762Z,8.28
2019-01-13T20:58:11.942Z,8.21
2019-01-13T21:00:40.137Z,8.19
2019-01-13T21:03:48.451Z,8.19
2019-01-13T21:06:16.659Z,8.15
2019-01-13T21:08:44.868Z,8.12
2019-01-13T21:11:53.263Z,8.12
2019-01-13T21:14:21.440Z,8.10
2019-01-13T21:17:08.996Z,8.03
2019-01-13T21:19:37.198Z,7.99
2019-01-13T21:22:05.424Z,7.92
2019-01-13T21:24:52.719Z,7.89
2019-01-13T21:30:01.664Z,7.81
2019-01-13T21:32:30.569Z,7.79
2019-01-13T21:34:58.754Z,7.78
2019-01-13T21:37:26.948Z,7.76
2019-01-13T21:39:55.130Z,7.75
2019-01-13T21:42:23.342Z,7.75
2019-01-13T21:44:51.527Z,7.74
2019-01-13T21:47:39.090Z,7.73
2019-01-13T21:53:21.276Z,7.73
2019-01-13T21:55:49.451Z,7.68
2019-01-13T21:58:17.650Z,7.63
2019-01-13T22:00:45.844Z,7.62
2019-01-13T22:03:14.039Z,7.61
2019-01-13T22:05:42.217Z,7.60
2019-01-13T22:08:10.413Z,7.57
2019-01-13T22:10:38.596Z,7.55
2019-01-13T22:13:06.795Z,7.52
2019-01-13T22:15:34.981Z,7.48
2019-01-13T22:18:03.181Z,7.47
2019-01-13T22:20:31.366Z,7.44
2019-01-13T22:22:59.589Z,7.42
2019-01-13T22:25:27.799Z,7.40
2019-01-13T22:27:55.985Z,7.37
2019-01-13T22:30:24.166Z,7.40
2019-01-13T22:32:52.363Z,7.39
2019-01-13T22:35:20.542Z,7.37
2019-01-13T22:37:55.303Z,7.34
2019-01-13T22:43:33.109Z,7.28
2019-01-13T22:46:01.329Z,7.20
2019-01-13T22:48:29.520Z,7.20
2019-01-13T22:50:57.706Z,7.18
2019-01-13T22:53:25.910Z,7.13
2019-01-13T22:55:54.087Z,7.09
2019-01-13T22:58:22.266Z,7.06
2019-01-13T23:01:30.598Z,7.05
2019-01-13T23:03:58.793Z,7.05
2019-01-13T23:06:26.993Z,7.01
2019-01-13T23:08:55.174Z,6.99
2019-01-13T23:11:23.377Z,6.99
2019-01-13T23:16:38.810Z,6.98
2019-01-13T23:19:07.021Z,6.92
2019-01-13T23:21:35.203Z,6.87
2019-01-13T23:26:50.628Z,6.83
2019-01-13T23:29:18.816Z,6.79
2019-01-13T23:31:47.017Z,6.76
2019-01-13T23:34:15.202Z,6.74
2019-01-13T23:36:43.406Z,6.75
2019-01-13T23:39:11.585Z,6.73
2019-01-13T23:41:39.783Z,6.71
2019-01-13T23:47:00.701Z,6.73
2019-01-13T23:49:28.928Z,6.71
2019-01-13T23:51:57.131Z,6.66
2019-01-13T23:54:25.321Z,6.61
2019-01-13T23:59:27.783Z,6.56
